< < Back
Terminal Aerodrome Forecast


Current Version              Previous Versions:   1  2  3  4  5  6  7  8  9  

Terminal Aerodrome Forecast

571
FTUS42 KCHS 311120
TAFSAV
TAF
KSAV 311120Z 3112/0112 00000KT 1/2SM FG VV002
     FM311300 00000KT 2SM BR BKN005
     FM311400 25007KT P6SM FEW040
     FM311900 23013G19KT P6SM FEW050 SCT120 BKN200
     FM010000 23007KT P6SM FEW050 BKN080=



Latest METAR

754
SAUS80 KWBC 311200 RRA
MTRSAV
METAR KSAV 311153Z 00000KT 1/4SM R10/1200FT FG VV001 09/09 A3010 RMK AO2
SLP191 T00940089 10133 20089 51008 $


USA.gov is the U.S. government's official web portal to all federal, state and local government web resources and services.